createdAt,value
2022-10-19T00:01:32.657Z,9.85
2022-10-19T00:04:02.466Z,7.63
2022-10-19T00:06:34.027Z,6.18
2022-10-19T00:09:04.007Z,10.07
2022-10-19T00:11:32.211Z,12.63
2022-10-19T00:13:59.591Z,7.28
2022-10-19T00:16:28.995Z,8.18
2022-10-19T00:18:57.665Z,6.75
2022-10-19T00:21:25.029Z,6.90
2022-10-19T00:23:51.404Z,5.53
2022-10-19T00:26:18.122Z,7.22
2022-10-19T00:28:45.010Z,8.55
2022-10-19T00:31:15.112Z,6.75
2022-10-19T00:33:43.112Z,7.88
2022-10-19T00:36:21.675Z,4.78
2022-10-19T00:38:48.532Z,6.97
2022-10-19T00:41:16.176Z,8.80
2022-10-19T00:43:53.422Z,6.65
2022-10-19T00:46:20.007Z,7.90
2022-10-19T00:48:46.524Z,9.13
2022-10-19T00:51:13.852Z,7.38
2022-10-19T00:53:41.220Z,6.07
2022-10-19T00:56:12.887Z,8.07
2022-10-19T00:58:42.621Z,10.57
2022-10-19T01:01:14.217Z,9.15
2022-10-19T01:03:40.639Z,13.43
2022-10-19T01:06:07.981Z,9.70
2022-10-19T01:08:34.397Z,8.98
2022-10-19T01:11:23.245Z,11.07
2022-10-19T01:14:20.757Z,5.78
2022-10-19T01:16:58.591Z,16.80
2022-10-19T01:20:09.277Z,5.93
2022-10-19T01:23:06.608Z,8.05
2022-10-19T01:26:00.507Z,5.05
2022-10-19T01:28:48.724Z,7.90
2022-10-19T01:31:38.252Z,10.25
2022-10-19T01:34:14.901Z,8.60
2022-10-19T01:36:47.991Z,8.20
2022-10-19T01:39:33.350Z,9.45
2022-10-19T01:42:15.472Z,10.23
2022-10-19T01:44:51.027Z,6.95
2022-10-19T01:47:25.940Z,6.70
2022-10-19T01:49:58.711Z,7.20
2022-10-19T01:52:27.216Z,5.30
2022-10-19T01:54:57.515Z,10.40
2022-10-19T01:57:30.538Z,7.95
2022-10-19T01:59:58.088Z,6.15
2022-10-19T02:02:27.801Z,6.95
2022-10-19T02:04:57.549Z,10.30
2022-10-19T02:07:24.811Z,8.38
2022-10-19T02:09:51.336Z,7.53
2022-10-19T02:12:20.268Z,6.47
2022-10-19T02:14:51.730Z,6.93
2022-10-19T02:17:23.815Z,5.32
2022-10-19T02:19:51.454Z,8.52
2022-10-19T02:22:17.900Z,8.82
2022-10-19T02:24:44.303Z,5.72
2022-10-19T02:27:11.582Z,8.35
2022-10-19T02:29:39.481Z,4.93
2022-10-19T02:32:06.824Z,13.40
2022-10-19T02:34:35.060Z,7.25
2022-10-19T02:37:01.827Z,7.28
2022-10-19T02:39:28.344Z,11.55
2022-10-19T02:42:07.194Z,9.55
2022-10-19T02:44:57.294Z,5.57
2022-10-19T02:47:35.857Z,7.70
2022-10-19T02:50:07.170Z,8.95
2022-10-19T02:52:33.680Z,5.78
2022-10-19T02:55:00.033Z,7.75
2022-10-19T02:57:26.469Z,10.00
2022-10-19T02:59:53.017Z,12.20
2022-10-19T03:02:20.650Z,5.47
2022-10-19T03:07:20.663Z,5.30
2022-10-19T03:09:47.091Z,9.13
2022-10-19T03:12:14.475Z,10.02
2022-10-19T03:14:40.880Z,7.35
2022-10-19T03:17:07.746Z,8.75
2022-10-19T03:19:35.523Z,8.73
2022-10-19T03:22:02.372Z,12.75
2022-10-19T03:24:30.198Z,11.80
2022-10-19T03:26:57.085Z,9.60
2022-10-19T03:29:23.542Z,13.65
2022-10-19T03:31:49.928Z,9.32
2022-10-19T03:34:16.479Z,10.43
2022-10-19T03:36:43.039Z,8.00
2022-10-19T03:39:14.119Z,10.77
2022-10-19T03:41:41.012Z,7.10
2022-10-19T03:44:08.904Z,5.97
2022-10-19T03:46:36.392Z,16.08
2022-10-19T03:49:03.664Z,7.40
2022-10-19T03:51:31.268Z,7.97
2022-10-19T03:54:03.603Z,4.78
2022-10-19T03:56:31.229Z,10.73
2022-10-19T03:58:59.855Z,8.10
2022-10-19T04:01:35.436Z,6.25
2022-10-19T04:04:06.027Z,5.60
2022-10-19T04:06:35.780Z,8.40
2022-10-19T04:09:03.159Z,11.32
2022-10-19T04:11:31.072Z,10.73
2022-10-19T04:13:58.788Z,6.57
2022-10-19T04:16:27.693Z,8.70
2022-10-19T04:18:54.879Z,9.85
2022-10-19T04:21:33.194Z,5.47
2022-10-19T04:24:02.478Z,7.68
2022-10-19T04:26:29.259Z,10.05
2022-10-19T04:28:59.793Z,7.45
2022-10-19T04:31:27.672Z,7.45
2022-10-19T04:33:54.266Z,6.78
2022-10-19T04:36:20.707Z,7.30
2022-10-19T04:38:47.439Z,9.68
2022-10-19T04:41:16.639Z,12.30
2022-10-19T04:43:45.245Z,12.23
2022-10-19T04:46:15.304Z,6.60
2022-10-19T04:48:41.984Z,8.85
2022-10-19T04:51:08.907Z,14.02
2022-10-19T04:53:37.811Z,11.43
2022-10-19T04:56:06.063Z,10.13
2022-10-19T04:58:33.147Z,8.25
2022-10-19T05:00:59.538Z,6.07
2022-10-19T05:03:26.116Z,10.20
2022-10-19T05:05:52.466Z,9.68
2022-10-19T05:08:18.885Z,7.25
2022-10-19T05:10:47.619Z,11.75
2022-10-19T05:13:14.390Z,6.65
2022-10-19T05:15:40.780Z,13.63
2022-10-19T05:18:07.162Z,9.68
2022-10-19T05:20:33.555Z,6.75
2022-10-19T05:23:04.603Z,9.98
2022-10-19T05:25:33.560Z,10.60
2022-10-19T05:27:59.892Z,11.05
2022-10-19T05:30:26.485Z,9.88
2022-10-19T05:32:52.826Z,6.75
2022-10-19T05:35:22.336Z,7.20
2022-10-19T05:37:49.200Z,11.15
2022-10-19T05:40:15.606Z,9.88
2022-10-19T05:42:41.956Z,17.40
2022-10-19T05:45:08.605Z,14.75
2022-10-19T05:47:35.529Z,9.65
2022-10-19T05:50:03.732Z,11.80
2022-10-19T05:52:30.154Z,16.70
2022-10-19T05:54:58.293Z,8.60
2022-10-19T05:57:25.402Z,12.13
2022-10-19T05:59:52.020Z,6.97
2022-10-19T06:02:18.451Z,10.23
2022-10-19T06:04:44.997Z,8.10
2022-10-19T06:07:11.344Z,8.10
2022-10-19T06:09:37.817Z,12.45
2022-10-19T06:12:04.288Z,10.63
2022-10-19T06:14:30.725Z,17.05
2022-10-19T06:16:57.214Z,16.17
2022-10-19T06:19:23.655Z,10.10
2022-10-19T06:21:50.019Z,13.40
2022-10-19T06:24:16.558Z,11.57
2022-10-19T06:26:42.933Z,15.07
2022-10-19T06:29:09.808Z,12.70
2022-10-19T06:31:36.468Z,10.77
2022-10-19T06:34:03.242Z,13.25
2022-10-19T06:36:31.360Z,14.95
2022-10-19T06:38:59.718Z,9.48
2022-10-19T06:41:26.680Z,22.63
2022-10-19T06:43:54.832Z,11.02
2022-10-19T06:46:23.405Z,16.55
2022-10-19T06:48:51.634Z,14.85
2022-10-19T06:51:18.271Z,24.45
2022-10-19T06:53:44.659Z,14.70
2022-10-19T06:56:11.078Z,14.13
2022-10-19T06:58:38.507Z,17.00
2022-10-19T07:01:07.639Z,13.95
2022-10-19T07:03:35.175Z,15.18
2022-10-19T07:06:04.601Z,10.63
2022-10-19T07:08:32.474Z,9.57
2022-10-19T07:11:01.929Z,19.65
2022-10-19T07:13:29.663Z,16.85
2022-10-19T07:16:01.375Z,15.27
2022-10-19T07:18:27.751Z,13.18
2022-10-19T07:21:03.131Z,9.98
2022-10-19T07:23:31.645Z,13.65
2022-10-19T07:26:01.764Z,21.00
2022-10-19T07:28:30.255Z,20.65
2022-10-19T07:30:57.077Z,14.20
2022-10-19T07:33:24.120Z,13.50
2022-10-19T07:35:50.741Z,15.52
2022-10-19T07:38:17.296Z,14.23
2022-10-19T07:40:46.541Z,10.70
2022-10-19T07:43:14.036Z,14.52
2022-10-19T07:45:40.376Z,13.35
2022-10-19T07:48:06.901Z,11.02
2022-10-19T07:50:33.440Z,10.55
2022-10-19T07:52:59.849Z,14.27
2022-10-19T07:55:26.235Z,12.15
2022-10-19T07:57:52.772Z,10.13
2022-10-19T08:00:19.271Z,15.00
2022-10-19T08:03:04.991Z,14.90
2022-10-19T08:05:33.371Z,9.35
2022-10-19T08:07:59.815Z,10.02
2022-10-19T08:10:26.245Z,12.07
2022-10-19T08:12:52.881Z,16.10
2022-10-19T08:15:19.372Z,16.08
2022-10-19T08:17:45.752Z,16.42
2022-10-19T08:20:12.276Z,14.35
2022-10-19T08:22:39.598Z,10.05
2022-10-19T08:25:07.208Z,15.00
2022-10-19T08:27:37.335Z,14.55
2022-10-19T08:30:04.034Z,13.18
2022-10-19T08:32:37.401Z,13.73
2022-10-19T08:35:08.487Z,12.93
2022-10-19T08:37:45.302Z,9.32
2022-10-19T08:40:24.824Z,11.55
2022-10-19T08:43:04.459Z,11.70
2022-10-19T08:45:50.824Z,11.63
2022-10-19T08:48:36.578Z,7.20
2022-10-19T08:51:05.484Z,12.75
2022-10-19T08:53:56.150Z,11.68
2022-10-19T08:56:50.387Z,15.90
2022-10-19T08:59:27.724Z,9.05
2022-10-19T09:02:10.425Z,8.73
2022-10-19T09:04:40.132Z,7.00
2022-10-19T09:07:21.904Z,11.77
2022-10-19T09:09:57.319Z,13.30
2022-10-19T09:12:37.837Z,13.85
2022-10-19T09:15:07.648Z,11.50
2022-10-19T09:17:38.791Z,9.63
2022-10-19T09:20:19.000Z,15.57
2022-10-19T09:23:13.294Z,11.20
2022-10-19T09:25:40.827Z,13.50
2022-10-19T09:29:03.487Z,13.55
2022-10-19T09:31:40.358Z,11.10
2022-10-19T09:34:29.469Z,11.77
2022-10-19T09:36:59.647Z,10.13
2022-10-19T09:39:29.559Z,13.20
2022-10-19T09:42:07.588Z,16.63
2022-10-19T09:44:34.225Z,14.90
2022-10-19T09:47:32.363Z,8.63
2022-10-19T09:50:22.666Z,12.90
2022-10-19T09:52:51.745Z,11.05
2022-10-19T09:55:39.132Z,12.93
2022-10-19T09:58:14.945Z,8.18
2022-10-19T10:00:43.972Z,8.15
2022-10-19T10:03:32.058Z,11.55
2022-10-19T10:06:03.896Z,13.82
2022-10-19T10:08:33.812Z,9.02
2022-10-19T10:11:11.442Z,10.52
2022-10-19T10:13:43.508Z,14.80
2022-10-19T10:16:16.441Z,10.48
2022-10-19T10:18:51.680Z,10.02
2022-10-19T10:21:25.798Z,5.95
2022-10-19T10:24:26.195Z,6.43
2022-10-19T10:26:56.082Z,8.93
2022-10-19T10:29:25.679Z,9.35
2022-10-19T10:32:00.292Z,8.35
2022-10-19T10:34:49.428Z,10.85
2022-10-19T10:37:31.202Z,9.30
2022-10-19T10:40:04.578Z,11.07
2022-10-19T10:42:40.832Z,12.00
2022-10-19T10:45:22.688Z,9.23
2022-10-19T10:47:50.580Z,7.22
2022-10-19T10:50:31.728Z,9.25
2022-10-19T10:53:29.786Z,6.03
2022-10-19T10:55:56.753Z,4.95
2022-10-19T10:58:47.933Z,7.22
2022-10-19T11:01:23.286Z,10.07
2022-10-19T11:04:03.711Z,7.78
2022-10-19T11:06:34.477Z,8.50
2022-10-19T11:09:15.890Z,7.60
2022-10-19T11:11:47.454Z,8.25
2022-10-19T11:14:25.217Z,3.60
2022-10-19T11:17:00.247Z,6.22
2022-10-19T11:19:35.779Z,6.38
2022-10-19T11:22:08.794Z,6.88
2022-10-19T11:24:56.894Z,4.28
2022-10-19T11:27:41.170Z,9.35
2022-10-19T11:30:20.037Z,8.27
2022-10-19T11:32:57.689Z,7.20
2022-10-19T11:35:32.972Z,5.32
2022-10-19T11:38:27.393Z,5.32
2022-10-19T11:41:18.893Z,4.20
2022-10-19T11:44:06.849Z,6.50
2022-10-19T11:46:51.209Z,7.40
2022-10-19T11:49:46.478Z,4.53
2022-10-19T11:52:25.208Z,6.15
2022-10-19T11:55:24.217Z,6.90
2022-10-19T11:58:21.384Z,6.50
2022-10-19T12:01:02.898Z,5.03
2022-10-19T12:03:57.445Z,6.72
2022-10-19T12:07:00.167Z,7.28
2022-10-19T12:09:57.780Z,5.30
2022-10-19T12:12:34.171Z,3.13
2022-10-19T12:15:27.272Z,4.97
2022-10-19T12:17:58.471Z,4.22
2022-10-19T12:20:30.810Z,4.00
2022-10-19T12:22:59.374Z,4.10
2022-10-19T12:25:26.552Z,2.53
2022-10-19T12:27:54.081Z,4.90
2022-10-19T12:30:22.867Z,3.38
2022-10-19T12:33:03.314Z,4.13
2022-10-19T12:36:06.744Z,2.03
2022-10-19T12:38:45.126Z,5.50
2022-10-19T12:41:31.245Z,3.50
2022-10-19T12:44:34.969Z,3.15
2022-10-19T12:47:15.329Z,3.53
2022-10-19T12:49:57.488Z,3.88
2022-10-19T12:52:44.887Z,4.43
2022-10-19T12:55:12.773Z,3.70
2022-10-19T12:57:40.584Z,2.55
2022-10-19T13:00:20.628Z,4.25
2022-10-19T13:02:55.264Z,2.47
2022-10-19T13:05:23.969Z,3.97
2022-10-19T13:10:26.208Z,1.90
2022-10-19T13:12:53.944Z,4.88
2022-10-19T13:15:35.529Z,4.18
2022-10-19T13:18:41.016Z,5.75
2022-10-19T13:21:08.437Z,5.00
2022-10-19T13:23:39.592Z,3.25
2022-10-19T13:26:30.237Z,3.67
2022-10-19T13:28:57.026Z,5.30
2022-10-19T13:31:29.167Z,8.77
2022-10-19T13:33:56.371Z,2.67
2022-10-19T13:36:24.782Z,2.60
2022-10-19T13:38:51.129Z,4.63
2022-10-19T13:41:22.398Z,3.72
2022-10-19T13:44:04.256Z,6.45
2022-10-19T13:46:30.656Z,2.95
2022-10-19T13:49:12.276Z,2.30
2022-10-19T13:52:02.205Z,3.72
2022-10-19T13:54:34.667Z,3.55
2022-10-19T13:57:18.277Z,3.50
2022-10-19T14:00:03.305Z,3.92
2022-10-19T14:03:19.947Z,2.90
2022-10-19T14:06:17.267Z,3.92
2022-10-19T14:08:49.641Z,4.35
2022-10-19T14:11:26.067Z,2.10
2022-10-19T14:14:14.574Z,3.65
2022-10-19T14:17:02.980Z,3.20
2022-10-19T14:19:40.782Z,4.78
2022-10-19T14:22:40.565Z,2.60
2022-10-19T14:25:16.004Z,3.22
2022-10-19T14:27:42.882Z,2.60
2022-10-19T14:30:32.237Z,2.63
2022-10-19T14:33:02.352Z,3.75
2022-10-19T14:35:34.103Z,4.82
2022-10-19T14:38:01.256Z,3.22
2022-10-19T14:40:37.565Z,2.30
2022-10-19T14:43:20.744Z,2.78
2022-10-19T14:46:03.221Z,2.70
2022-10-19T14:48:29.804Z,2.15
2022-10-19T14:50:57.760Z,2.60
2022-10-19T14:53:42.347Z,2.83
2022-10-19T14:56:19.898Z,4.25
2022-10-19T14:58:55.203Z,3.13
2022-10-19T15:01:21.941Z,2.42
2022-10-19T15:03:49.971Z,1.58
2022-10-19T15:06:24.690Z,3.25
2022-10-19T15:09:30.455Z,3.90
2022-10-19T15:12:14.251Z,0.88
2022-10-19T15:14:41.469Z,1.92
2022-10-19T15:17:28.144Z,2.33
2022-10-19T15:19:56.066Z,0.90
2022-10-19T15:22:31.909Z,6.22
2022-10-19T15:25:00.631Z,2.65
2022-10-19T15:27:39.178Z,2.47
2022-10-19T15:30:17.807Z,2.13
2022-10-19T15:32:46.389Z,3.38
2022-10-19T15:35:23.064Z,4.45
2022-10-19T15:37:50.318Z,2.28
2022-10-19T15:40:25.792Z,2.75
2022-10-19T15:42:52.483Z,12.18
2022-10-19T15:45:35.837Z,3.15
2022-10-19T15:48:26.335Z,6.53
2022-10-19T15:50:54.085Z,1.80
2022-10-19T15:53:21.701Z,4.82
2022-10-19T15:55:48.919Z,5.18
2022-10-19T15:58:15.852Z,1.65
2022-10-19T16:00:42.502Z,4.32
2022-10-19T16:03:09.900Z,5.13
2022-10-19T16:05:36.671Z,6.90
2022-10-19T16:08:03.576Z,3.83
2022-10-19T16:10:29.945Z,2.63
2022-10-19T16:12:56.320Z,4.15
2022-10-19T16:15:23.480Z,2.63
2022-10-19T16:17:53.344Z,3.28
2022-10-19T16:20:20.283Z,5.45
2022-10-19T16:22:47.975Z,4.30
2022-10-19T16:25:15.127Z,7.28
2022-10-19T16:27:41.886Z,9.32
2022-10-19T16:30:09.137Z,7.68
2022-10-19T16:32:35.572Z,5.90
2022-10-19T16:35:02.120Z,6.00
2022-10-19T16:37:28.536Z,6.05
2022-10-19T16:39:55.064Z,6.20
2022-10-19T16:42:22.297Z,1.85
2022-10-19T16:45:20.319Z,3.03
2022-10-19T16:48:13.364Z,3.78
2022-10-19T16:51:27.716Z,4.82
2022-10-19T16:54:00.014Z,6.60
2022-10-19T16:56:28.929Z,3.08
2022-10-19T16:58:59.838Z,4.45
2022-10-19T17:01:27.437Z,3.50
2022-10-19T17:03:55.010Z,4.13
2022-10-19T17:06:21.913Z,3.03
2022-10-19T17:11:38.238Z,5.00
2022-10-19T17:14:07.605Z,2.58
2022-10-19T17:16:36.083Z,2.90
2022-10-19T17:19:04.269Z,3.65
2022-10-19T17:21:33.178Z,3.67
2022-10-19T17:24:01.842Z,3.85
2022-10-19T17:26:34.302Z,3.90
2022-10-19T17:29:01.282Z,2.97
2022-10-19T17:31:28.927Z,3.33
2022-10-19T17:33:55.721Z,9.13
2022-10-19T17:36:25.509Z,4.38
2022-10-19T17:38:53.507Z,5.13
2022-10-19T17:41:22.023Z,7.55
2022-10-19T17:43:53.015Z,8.18
2022-10-19T17:46:28.929Z,4.03
2022-10-19T17:48:57.312Z,2.58
2022-10-19T17:51:27.393Z,2.60
2022-10-19T17:54:01.336Z,4.78
2022-10-19T17:56:28.786Z,2.08
2022-10-19T17:58:57.330Z,2.65
2022-10-19T18:01:24.636Z,3.67
2022-10-19T18:03:51.421Z,2.92
2022-10-19T18:06:20.747Z,3.72
2022-10-19T18:08:52.051Z,4.18
2022-10-19T18:11:21.521Z,4.28
2022-10-19T18:13:49.528Z,4.68
2022-10-19T18:16:23.001Z,6.53
2022-10-19T18:18:51.107Z,4.18
2022-10-19T18:21:20.613Z,2.78
2022-10-19T18:23:47.691Z,2.97
2022-10-19T18:26:16.825Z,4.00
2022-10-19T18:28:43.535Z,2.50
2022-10-19T18:31:14.208Z,3.83
2022-10-19T18:33:40.925Z,5.03
2022-10-19T18:36:09.175Z,5.47
2022-10-19T18:38:37.137Z,4.68
2022-10-19T18:41:11.614Z,3.55
2022-10-19T18:43:39.264Z,6.57
2022-10-19T18:46:05.992Z,5.20
2022-10-19T18:48:32.522Z,3.25
2022-10-19T18:51:03.470Z,4.90
2022-10-19T18:53:30.295Z,4.32
2022-10-19T18:55:58.247Z,9.80
2022-10-19T18:58:25.347Z,4.35
2022-10-19T19:01:06.124Z,3.97
2022-10-19T19:03:33.298Z,5.25
2022-10-19T19:06:01.423Z,4.00
2022-10-19T19:08:28.859Z,5.00
2022-10-19T19:10:56.447Z,4.47
2022-10-19T19:13:23.812Z,4.75
2022-10-19T19:15:59.942Z,3.80
2022-10-19T19:18:27.332Z,4.88
2022-10-19T19:20:53.918Z,5.28
2022-10-19T19:23:20.315Z,4.88
2022-10-19T19:25:46.842Z,4.80
2022-10-19T19:28:13.214Z,3.45
2022-10-19T19:30:44.416Z,3.20
2022-10-19T19:33:11.254Z,4.53
2022-10-19T19:35:48.331Z,3.35
2022-10-19T19:38:15.524Z,3.88
2022-10-19T19:40:44.687Z,4.13
2022-10-19T19:43:12.662Z,3.33
2022-10-19T19:45:40.008Z,4.07
2022-10-19T19:48:09.208Z,3.95
2022-10-19T19:50:37.090Z,3.60
2022-10-19T19:53:04.845Z,3.92
2022-10-19T19:55:36.777Z,4.43
2022-10-19T19:58:05.605Z,4.05
2022-10-19T20:00:32.400Z,4.07
2022-10-19T20:02:59.059Z,5.25
2022-10-19T20:05:26.991Z,5.78
2022-10-19T20:07:53.474Z,5.32
2022-10-19T20:10:20.297Z,4.55
2022-10-19T20:12:47.231Z,3.97
2022-10-19T20:15:16.299Z,3.67
2022-10-19T20:17:44.088Z,4.07
2022-10-19T20:20:12.254Z,3.47
2022-10-19T20:22:39.040Z,5.65
2022-10-19T20:25:06.409Z,6.60
2022-10-19T20:27:36.241Z,4.03
2022-10-19T20:30:03.673Z,4.28
2022-10-19T20:32:30.920Z,6.40
2022-10-19T20:34:57.571Z,5.75
2022-10-19T20:37:24.105Z,3.85
2022-10-19T20:39:50.584Z,4.00
2022-10-19T20:42:18.732Z,7.68
2022-10-19T20:44:45.436Z,3.95
2022-10-19T20:47:11.856Z,3.70
2022-10-19T20:49:38.535Z,3.95
2022-10-19T20:52:04.982Z,2.67
2022-10-19T20:54:31.923Z,5.93
2022-10-19T20:56:59.060Z,6.32
2022-10-19T20:59:27.651Z,4.72
2022-10-19T21:01:56.160Z,7.72
2022-10-19T21:04:23.887Z,2.70
2022-10-19T21:06:51.720Z,3.83
2022-10-19T21:09:21.136Z,11.27
2022-10-19T21:11:50.000Z,2.25
2022-10-19T21:14:27.223Z,4.55
2022-10-19T21:16:59.607Z,4.97
2022-10-19T21:19:28.377Z,2.97
2022-10-19T21:21:57.682Z,2.90
2022-10-19T21:24:26.584Z,3.40
2022-10-19T21:26:53.438Z,4.47
2022-10-19T21:29:19.989Z,4.50
2022-10-19T21:31:49.240Z,3.25
2022-10-19T21:34:18.972Z,3.85
2022-10-19T21:36:45.418Z,3.13
2022-10-19T21:39:11.956Z,3.08
2022-10-19T21:41:38.499Z,3.20
2022-10-19T21:44:05.114Z,2.47
2022-10-19T21:46:31.614Z,7.50
2022-10-19T21:48:58.131Z,4.78
2022-10-19T21:51:32.115Z,7.28
2022-10-19T21:53:59.154Z,3.03
2022-10-19T21:56:25.686Z,4.30
2022-10-19T21:58:53.147Z,4.72
2022-10-19T22:01:22.134Z,3.30
2022-10-19T22:03:48.641Z,2.90
2022-10-19T22:06:15.599Z,4.78
2022-10-19T22:08:46.000Z,3.40
2022-10-19T22:11:13.845Z,3.53
2022-10-19T22:13:41.020Z,3.00
2022-10-19T22:16:14.162Z,4.85
2022-10-19T22:18:40.796Z,4.55
2022-10-19T22:21:09.886Z,2.90
2022-10-19T22:23:36.516Z,5.47
2022-10-19T22:26:11.799Z,5.32
2022-10-19T22:28:38.222Z,3.65
2022-10-19T22:31:04.739Z,3.83
2022-10-19T22:33:31.182Z,6.55
2022-10-19T22:35:59.605Z,6.07
2022-10-19T22:38:27.422Z,4.32
2022-10-19T22:40:53.785Z,3.08
2022-10-19T22:43:20.602Z,3.70
2022-10-19T22:45:48.354Z,2.75
2022-10-19T22:48:16.348Z,3.70
2022-10-19T22:50:43.089Z,2.30
2022-10-19T22:53:09.721Z,5.05
2022-10-19T22:55:36.196Z,3.58
2022-10-19T22:58:03.870Z,5.43
2022-10-19T23:00:30.755Z,4.28
2022-10-19T23:02:57.595Z,2.75
2022-10-19T23:05:24.269Z,5.20
2022-10-19T23:07:50.781Z,3.55
2022-10-19T23:10:17.673Z,3.90
2022-10-19T23:12:44.159Z,3.10
2022-10-19T23:15:10.699Z,2.10
2022-10-19T23:17:37.563Z,3.47
2022-10-19T23:20:04.593Z,2.20
2022-10-19T23:22:31.291Z,5.63
2022-10-19T23:24:57.668Z,3.45
2022-10-19T23:27:24.191Z,3.50
2022-10-19T23:29:50.633Z,3.88
2022-10-19T23:32:17.164Z,2.72
2022-10-19T23:34:46.011Z,6.80
2022-10-19T23:37:14.800Z,4.15
2022-10-19T23:39:41.189Z,3.78
2022-10-19T23:42:07.714Z,2.08
2022-10-19T23:44:34.181Z,3.03
2022-10-19T23:47:00.528Z,4.05
2022-10-19T23:49:26.922Z,2.28
2022-10-19T23:51:53.387Z,3.75
2022-10-19T23:54:19.839Z,7.15
2022-10-19T23:56:46.384Z,4.13
2022-10-19T23:59:12.978Z,3.10
